createdAt,value
2019-02-22T00:01:36.634Z,7.60
2019-02-22T00:04:05.953Z,7.50
2019-02-22T00:06:35.264Z,7.60
2019-02-22T00:09:06.537Z,7.50
2019-02-22T00:11:36.331Z,7.50
2019-02-22T00:14:05.787Z,7.50
2019-02-22T00:16:35.188Z,7.40
2019-02-22T00:19:04.599Z,7.30
2019-02-22T00:21:33.980Z,7.30
2019-02-22T00:24:03.296Z,7.20
2019-02-22T00:26:32.632Z,7.20
2019-02-22T00:29:01.983Z,7.20
2019-02-22T00:31:31.336Z,7.10
2019-02-22T00:34:00.664Z,7.10
2019-02-22T00:36:30.031Z,7.10
2019-02-22T00:38:59.445Z,7.10
2019-02-22T00:41:28.770Z,7.00
2019-02-22T00:43:58.101Z,7.00
2019-02-22T00:46:27.412Z,7.00
2019-02-22T00:48:56.728Z,7.10
2019-02-22T00:51:26.066Z,7.10
2019-02-22T00:53:55.383Z,7.10
2019-02-22T00:56:24.688Z,7.20
2019-02-22T00:58:54.028Z,7.30
2019-02-22T01:01:23.347Z,7.30
2019-02-22T01:03:52.665Z,7.30
2019-02-22T01:06:21.999Z,7.10
2019-02-22T01:08:51.319Z,7.00
2019-02-22T01:11:20.638Z,7.00
2019-02-22T01:13:50.004Z,6.90
2019-02-22T01:16:19.325Z,6.80
2019-02-22T01:18:48.637Z,6.80
2019-02-22T01:21:17.967Z,6.80
2019-02-22T01:23:47.283Z,6.90
2019-02-22T01:26:16.616Z,6.90
2019-02-22T01:28:45.923Z,6.90
2019-02-22T01:31:15.255Z,7.10
2019-02-22T01:33:44.576Z,7.10
2019-02-22T01:36:13.963Z,7.10
2019-02-22T01:38:43.305Z,7.00
2019-02-22T01:41:12.612Z,7.10
2019-02-22T01:43:41.936Z,7.10
2019-02-22T01:46:11.263Z,7.10
2019-02-22T01:48:40.577Z,7.20
2019-02-22T01:51:09.898Z,7.10
2019-02-22T01:53:39.248Z,7.10
2019-02-22T01:56:08.610Z,7.20
2019-02-22T01:58:48.417Z,7.10
2019-02-22T02:01:09.944Z,7.30
2019-02-22T02:03:39.323Z,7.20
2019-02-22T02:06:08.705Z,7.10
2019-02-22T02:08:38.110Z,7.10
2019-02-22T02:11:07.492Z,7.20
2019-02-22T02:13:36.881Z,7.20
2019-02-22T02:16:06.205Z,7.20
2019-02-22T02:18:35.521Z,7.20
2019-02-22T02:21:05.058Z,7.10
2019-02-22T02:23:34.365Z,7.10
2019-02-22T02:26:03.684Z,7.10
2019-02-22T02:28:33.035Z,7.20
2019-02-22T02:31:02.357Z,7.10
2019-02-22T02:33:31.670Z,7.00
2019-02-22T02:36:01.019Z,7.10
2019-02-22T02:38:30.408Z,7.20
2019-02-22T02:41:08.377Z,7.10
2019-02-22T02:43:31.935Z,7.10
2019-02-22T02:46:01.250Z,7.20
2019-02-22T02:48:30.564Z,7.20
2019-02-22T02:50:59.936Z,7.20
2019-02-22T02:53:29.313Z,7.20
2019-02-22T02:55:58.635Z,7.20
2019-02-22T02:58:27.970Z,7.30
2019-02-22T03:00:57.283Z,7.30
2019-02-22T03:03:26.601Z,7.20
2019-02-22T03:06:01.002Z,7.20
2019-02-22T03:08:31.952Z,7.10
2019-02-22T03:11:01.329Z,7.30
2019-02-22T03:13:30.647Z,7.10
2019-02-22T03:15:59.971Z,7.10
2019-02-22T03:18:29.319Z,7.10
2019-02-22T03:20:58.650Z,7.00
2019-02-22T03:23:27.959Z,6.90
2019-02-22T03:25:57.281Z,6.90
2019-02-22T03:28:26.608Z,6.90
2019-02-22T03:30:55.994Z,6.90
2019-02-22T03:33:25.312Z,6.70
2019-02-22T03:35:54.649Z,6.70
2019-02-22T03:38:24.025Z,6.70
2019-02-22T03:40:53.335Z,6.80
2019-02-22T03:43:22.775Z,6.80
2019-02-22T03:45:52.091Z,6.90
2019-02-22T03:48:21.409Z,6.80
2019-02-22T03:50:50.751Z,6.90
2019-02-22T03:53:21.709Z,6.70
2019-02-22T03:55:51.093Z,6.80
2019-02-22T03:58:20.497Z,6.70
2019-02-22T04:00:49.813Z,6.80
2019-02-22T04:03:19.135Z,6.90
2019-02-22T04:05:48.476Z,6.90
2019-02-22T04:08:17.796Z,6.90
2019-02-22T04:10:47.186Z,7.00
2019-02-22T04:13:16.538Z,7.00
2019-02-22T04:15:45.848Z,7.00
2019-02-22T04:18:15.301Z,6.90
2019-02-22T04:20:44.647Z,6.90
2019-02-22T04:23:13.958Z,7.00
2019-02-22T04:25:43.271Z,6.80
2019-02-22T04:28:12.674Z,6.80
2019-02-22T04:30:41.986Z,6.90
2019-02-22T04:33:11.302Z,6.90
2019-02-22T04:35:40.640Z,6.80
2019-02-22T04:38:09.944Z,6.80
2019-02-22T04:40:39.262Z,6.90
2019-02-22T04:43:08.611Z,6.90
2019-02-22T04:45:37.938Z,6.80
2019-02-22T04:48:07.246Z,6.80
2019-02-22T04:50:36.588Z,6.80
2019-02-22T04:53:05.916Z,6.70
2019-02-22T04:55:35.230Z,6.60
2019-02-22T04:58:04.554Z,6.50
2019-02-22T05:00:33.996Z,6.40
2019-02-22T05:03:03.315Z,6.30
2019-02-22T05:05:32.626Z,6.50
2019-02-22T05:08:01.966Z,6.50
2019-02-22T05:10:31.281Z,6.70
2019-02-22T05:13:00.593Z,6.80
2019-02-22T05:15:29.933Z,6.70
2019-02-22T05:17:59.321Z,6.70
2019-02-22T05:20:28.655Z,6.60
2019-02-22T05:23:03.704Z,6.60
2019-02-22T05:25:29.079Z,6.60
2019-02-22T05:27:58.389Z,6.50
2019-02-22T05:30:27.731Z,6.50
2019-02-22T05:32:57.036Z,6.70
2019-02-22T05:35:26.352Z,6.70
2019-02-22T05:37:55.701Z,6.80
2019-02-22T05:40:25.017Z,6.90
2019-02-22T05:42:54.395Z,6.70
2019-02-22T05:45:23.734Z,6.80
2019-02-22T05:47:53.041Z,7.00
2019-02-22T05:50:22.359Z,6.90
2019-02-22T05:52:51.734Z,6.80
2019-02-22T05:55:21.117Z,6.70
2019-02-22T05:57:50.424Z,6.50
2019-02-22T06:00:20.371Z,6.50
2019-02-22T06:02:49.681Z,6.40
2019-02-22T06:05:18.992Z,6.40
2019-02-22T06:07:48.321Z,6.40
2019-02-22T06:10:17.773Z,6.40
2019-02-22T06:12:52.594Z,6.50
2019-02-22T06:15:23.844Z,6.40
2019-02-22T06:17:53.158Z,6.30
2019-02-22T06:20:22.528Z,6.20
2019-02-22T06:22:51.916Z,6.30
2019-02-22T06:25:21.221Z,6.20
2019-02-22T06:27:50.574Z,6.20
2019-02-22T06:30:20.041Z,6.20
2019-02-22T06:32:49.367Z,6.30
2019-02-22T06:35:18.721Z,6.30
2019-02-22T06:37:48.167Z,6.30
2019-02-22T06:40:17.529Z,6.30
2019-02-22T06:42:46.883Z,6.10
2019-02-22T06:45:16.197Z,6.10
2019-02-22T06:47:45.507Z,6.10
2019-02-22T06:50:14.839Z,6.20
2019-02-22T06:52:44.157Z,6.10
2019-02-22T06:55:13.467Z,6.40
2019-02-22T06:57:42.825Z,6.50
2019-02-22T07:00:13.281Z,6.50
2019-02-22T07:02:42.613Z,6.50
2019-02-22T07:05:12.004Z,6.40
2019-02-22T07:07:41.408Z,6.50
2019-02-22T07:10:11.491Z,6.40
2019-02-22T07:12:56.184Z,6.50
2019-02-22T07:15:17.607Z,6.50
2019-02-22T07:17:47.035Z,6.70
2019-02-22T07:20:16.422Z,6.70
2019-02-22T07:22:46.059Z,6.60
2019-02-22T07:25:15.459Z,6.60
2019-02-22T07:27:44.833Z,6.70
2019-02-22T07:30:14.289Z,6.60
2019-02-22T07:32:43.661Z,6.60
2019-02-22T07:35:14.236Z,6.80
2019-02-22T07:37:43.935Z,7.00
2019-02-22T07:40:13.325Z,7.10
2019-02-22T07:42:42.649Z,6.90
2019-02-22T07:45:12.128Z,7.00
2019-02-22T07:47:41.439Z,7.00
2019-02-22T07:50:11.200Z,6.80
2019-02-22T07:52:40.564Z,6.70
2019-02-22T07:55:10.630Z,6.80
2019-02-22T07:57:40.356Z,6.90
2019-02-22T08:00:15.148Z,7.20
2019-02-22T08:02:44.462Z,7.30
2019-02-22T08:05:13.772Z,7.40
2019-02-22T08:07:43.193Z,7.40
2019-02-22T08:10:12.502Z,7.30
2019-02-22T08:12:41.819Z,7.20
2019-02-22T08:15:11.414Z,7.10
2019-02-22T08:17:40.800Z,7.10
2019-02-22T08:20:10.188Z,7.30
2019-02-22T08:22:39.930Z,7.60
2019-02-22T08:25:09.365Z,7.80
2019-02-22T08:27:40.171Z,7.80
2019-02-22T08:30:11.365Z,7.80
2019-02-22T08:32:40.679Z,7.70
2019-02-22T08:35:10.072Z,7.70
2019-02-22T08:37:39.399Z,7.60
2019-02-22T08:40:10.652Z,7.60
2019-02-22T08:42:39.997Z,7.60
2019-02-22T08:45:11.117Z,7.70
2019-02-22T08:47:40.427Z,7.70
2019-02-22T08:50:09.937Z,7.70
2019-02-22T08:52:39.455Z,8.00
2019-02-22T08:55:08.860Z,7.80
2019-02-22T08:57:38.295Z,7.70
2019-02-22T09:00:10.992Z,7.90
2019-02-22T09:02:40.620Z,8.10
2019-02-22T09:05:10.084Z,8.30
2019-02-22T09:07:39.473Z,8.10
2019-02-22T09:10:11.307Z,7.80
2019-02-22T09:12:40.738Z,8.00
2019-02-22T09:15:10.787Z,8.30
2019-02-22T09:17:40.106Z,8.30
2019-02-22T09:20:11.331Z,8.30
2019-02-22T09:22:40.804Z,8.40
2019-02-22T09:25:10.358Z,8.50
2019-02-22T09:27:39.696Z,8.70
2019-02-22T09:30:11.352Z,9.10
2019-02-22T09:32:40.777Z,9.00
2019-02-22T09:35:11.234Z,8.90
2019-02-22T09:37:41.928Z,9.00
2019-02-22T09:40:14.692Z,9.10
2019-02-22T09:42:43.752Z,9.50
2019-02-22T09:45:13.218Z,9.80
2019-02-22T09:47:42.540Z,10.00
2019-02-22T09:50:14.118Z,10.20
2019-02-22T09:52:43.514Z,10.40
2019-02-22T09:55:13.875Z,10.30
2019-02-22T09:57:43.204Z,10.30
2019-02-22T10:00:14.172Z,10.40
2019-02-22T10:02:44.785Z,10.50
2019-02-22T10:05:14.790Z,10.80
2019-02-22T10:07:44.195Z,10.60
2019-02-22T10:10:13.718Z,10.80
2019-02-22T10:12:43.130Z,10.70
2019-02-22T10:15:12.584Z,10.50
2019-02-22T10:17:41.992Z,10.40
2019-02-22T10:20:11.426Z,10.40
2019-02-22T10:22:40.746Z,10.60
2019-02-22T10:25:10.197Z,10.60
2019-02-22T10:27:39.551Z,10.60
2019-02-22T10:30:11.512Z,10.70
2019-02-22T10:32:40.922Z,10.40
2019-02-22T10:35:10.260Z,10.60
2019-02-22T10:37:39.588Z,10.60
2019-02-22T10:40:09.747Z,10.80
2019-02-22T10:42:39.224Z,10.70
2019-02-22T10:45:10.383Z,10.90
2019-02-22T10:47:39.728Z,10.90
2019-02-22T10:50:09.593Z,11.00
2019-02-22T10:52:38.911Z,11.10
2019-02-22T10:55:10.901Z,11.30
2019-02-22T10:57:41.310Z,11.60
2019-02-22T11:00:14.724Z,11.50
2019-02-22T11:02:44.131Z,11.50
2019-02-22T11:05:13.520Z,11.40
2019-02-22T11:07:42.958Z,11.50
2019-02-22T11:10:14.292Z,11.30
2019-02-22T11:12:43.811Z,11.20
2019-02-22T11:15:13.755Z,11.40
2019-02-22T11:17:43.076Z,11.40
2019-02-22T11:20:12.702Z,11.60
2019-02-22T11:22:42.033Z,11.70
2019-02-22T11:25:15.957Z,11.80
2019-02-22T11:27:45.422Z,11.90
2019-02-22T11:30:15.387Z,11.90
2019-02-22T11:32:44.817Z,12.00
2019-02-22T11:35:14.205Z,12.10
2019-02-22T11:37:43.529Z,11.90
2019-02-22T11:40:13.122Z,12.10
2019-02-22T11:42:42.428Z,12.30
2019-02-22T11:45:11.897Z,12.20
2019-02-22T11:47:41.248Z,12.30
2019-02-22T11:50:12.683Z,12.50
2019-02-22T11:52:42.088Z,12.60
2019-02-22T11:55:11.956Z,12.80
2019-02-22T11:57:41.340Z,13.20
2019-02-22T12:00:17.264Z,13.20
2019-02-22T12:02:47.588Z,13.60
2019-02-22T12:05:17.013Z,13.90
2019-02-22T12:07:46.417Z,14.30
2019-02-22T12:10:15.755Z,14.50
2019-02-22T12:12:45.249Z,14.90
2019-02-22T12:15:15.144Z,14.90
2019-02-22T12:17:44.605Z,14.60
2019-02-22T12:20:13.929Z,15.00
2019-02-22T12:22:43.283Z,15.30
2019-02-22T12:25:13.912Z,15.40
2019-02-22T12:27:43.229Z,15.30
2019-02-22T12:30:16.707Z,15.40
2019-02-22T12:32:46.083Z,15.70
2019-02-22T12:35:15.410Z,15.80
2019-02-22T12:37:44.743Z,15.80
2019-02-22T12:40:14.293Z,15.80
2019-02-22T12:42:43.629Z,15.80
2019-02-22T12:45:13.584Z,16.00
2019-02-22T12:47:42.906Z,16.20
2019-02-22T12:50:13.186Z,16.70
2019-02-22T12:52:42.587Z,17.10
2019-02-22T12:55:12.045Z,16.90
2019-02-22T12:57:41.434Z,17.00
2019-02-22T13:00:13.399Z,17.40
2019-02-22T13:02:42.791Z,18.10
2019-02-22T13:05:14.576Z,18.10
2019-02-22T13:07:43.888Z,17.80
2019-02-22T13:10:13.211Z,17.30
2019-02-22T13:12:42.559Z,16.90
2019-02-22T13:15:14.354Z,16.60
2019-02-22T13:17:43.569Z,16.00
2019-02-22T13:20:13.018Z,15.90
2019-02-22T13:22:42.352Z,15.50
2019-02-22T13:25:31.017Z,15.50
2019-02-22T13:28:00.333Z,15.70
2019-02-22T13:30:29.752Z,15.70
2019-02-22T13:32:59.184Z,15.90
2019-02-22T13:35:28.504Z,16.20
2019-02-22T13:37:57.825Z,16.50
2019-02-22T13:40:27.236Z,17.20
2019-02-22T13:42:56.624Z,17.80
2019-02-22T13:45:27.290Z,18.30
2019-02-22T13:47:57.145Z,18.10
2019-02-22T13:50:26.535Z,18.50
2019-02-22T13:52:55.853Z,18.30
2019-02-22T13:55:25.232Z,18.40
2019-02-22T13:57:54.611Z,17.90
2019-02-22T14:00:23.936Z,17.10
2019-02-22T14:02:53.358Z,16.70
2019-02-22T14:05:22.678Z,16.70
2019-02-22T14:07:52.544Z,17.10
2019-02-22T14:10:21.974Z,18.00
2019-02-22T14:12:51.293Z,18.50
2019-02-22T14:15:20.955Z,18.00
2019-02-22T14:17:50.574Z,17.20
2019-02-22T14:20:19.895Z,16.80
2019-02-22T14:22:50.824Z,16.40
2019-02-22T14:25:20.249Z,17.00
2019-02-22T14:27:49.640Z,17.80
2019-02-22T14:30:18.950Z,17.60
2019-02-22T14:32:49.823Z,17.80
2019-02-22T14:35:19.211Z,18.90
2019-02-22T14:37:48.560Z,17.90
2019-02-22T14:40:17.971Z,17.30
2019-02-22T14:42:48.373Z,16.80
2019-02-22T14:45:17.704Z,16.80
2019-02-22T14:50:23.171Z,16.50
2019-02-22T14:52:52.072Z,15.90
2019-02-22T14:55:21.393Z,15.60
2019-02-22T14:57:50.717Z,15.30
2019-02-22T15:00:20.689Z,15.10
2019-02-22T15:02:50.111Z,14.90
2019-02-22T15:05:19.431Z,15.00
2019-02-22T15:07:49.845Z,15.20
2019-02-22T15:10:19.265Z,15.00
2019-02-22T15:12:48.627Z,14.80
2019-02-22T15:15:20.770Z,14.90
2019-02-22T15:17:57.391Z,14.90
2019-02-22T15:20:26.765Z,14.60
2019-02-22T15:22:56.073Z,14.60
2019-02-22T15:25:25.397Z,14.50
2019-02-22T15:27:54.726Z,14.30
2019-02-22T15:30:24.238Z,14.00
2019-02-22T15:32:53.708Z,14.00
2019-02-22T15:35:23.109Z,14.00
2019-02-22T15:37:52.426Z,14.10
2019-02-22T15:40:21.810Z,13.90
2019-02-22T15:42:51.304Z,13.80
2019-02-22T15:45:20.732Z,13.80
2019-02-22T15:47:50.337Z,13.90
2019-02-22T15:50:19.734Z,13.80
2019-02-22T15:52:50.124Z,13.90
2019-02-22T15:55:19.537Z,13.90
2019-02-22T15:57:48.857Z,13.80
2019-02-22T16:00:21.406Z,13.80
2019-02-22T16:02:50.787Z,13.80
2019-02-22T16:05:27.585Z,13.70
2019-02-22T16:07:56.897Z,13.60
2019-02-22T16:10:26.359Z,13.60
2019-02-22T16:12:56.021Z,13.50
2019-02-22T16:15:25.416Z,13.30
2019-02-22T16:17:54.720Z,13.10
2019-02-22T16:20:24.221Z,13.10
2019-02-22T16:22:53.537Z,13.10
2019-02-22T16:25:22.863Z,13.00
2019-02-22T16:27:52.293Z,13.00
2019-02-22T16:30:23.318Z,13.00
2019-02-22T16:32:52.641Z,13.00
2019-02-22T16:35:21.995Z,12.80
2019-02-22T16:37:51.383Z,12.70
2019-02-22T16:40:20.735Z,12.60
2019-02-22T16:42:50.090Z,12.50
2019-02-22T16:45:19.420Z,12.40
2019-02-22T16:47:48.737Z,12.40
2019-02-22T16:50:19.213Z,12.60
2019-02-22T16:52:48.538Z,12.70
2019-02-22T16:55:17.897Z,12.60
2019-02-22T16:57:47.217Z,12.60
2019-02-22T17:00:17.446Z,12.40
2019-02-22T17:02:47.081Z,12.30
2019-02-22T17:05:17.096Z,12.40
2019-02-22T17:07:46.479Z,12.30
2019-02-22T17:10:15.832Z,12.30
2019-02-22T17:12:45.132Z,12.20
2019-02-22T17:15:14.891Z,12.20
2019-02-22T17:17:44.324Z,12.10
2019-02-22T17:20:14.882Z,12.10
2019-02-22T17:22:44.213Z,12.00
2019-02-22T17:25:21.073Z,11.80
2019-02-22T17:27:50.473Z,11.70
2019-02-22T17:30:21.223Z,11.60
2019-02-22T17:32:50.648Z,11.60
2019-02-22T17:35:20.032Z,11.50
2019-02-22T17:37:49.356Z,11.40
2019-02-22T17:40:27.701Z,11.30
2019-02-22T17:42:57.014Z,11.30
2019-02-22T17:45:26.344Z,11.30
2019-02-22T17:47:55.686Z,11.30
2019-02-22T17:50:25.001Z,11.30
2019-02-22T17:52:54.328Z,11.40
2019-02-22T17:55:23.701Z,11.20
2019-02-22T17:57:54.193Z,11.30
2019-02-22T18:00:25.262Z,11.10
2019-02-22T18:02:54.653Z,11.00
2019-02-22T18:05:24.070Z,10.90
2019-02-22T18:07:53.431Z,10.80
2019-02-22T18:10:22.828Z,10.90
2019-02-22T18:12:52.212Z,10.90
2019-02-22T18:15:21.626Z,10.70
2019-02-22T18:17:50.953Z,10.60
2019-02-22T18:20:20.595Z,10.50
2019-02-22T18:22:51.260Z,10.30
2019-02-22T18:25:20.585Z,10.40
2019-02-22T18:27:49.911Z,10.40
2019-02-22T18:30:24.004Z,10.50
2019-02-22T18:32:53.416Z,10.60
2019-02-22T18:35:22.738Z,10.60
2019-02-22T18:37:52.100Z,10.60
2019-02-22T18:40:22.818Z,10.30
2019-02-22T18:42:53.258Z,10.10
2019-02-22T18:45:22.643Z,10.00
2019-02-22T18:47:52.003Z,9.90
2019-02-22T18:50:21.388Z,9.80
2019-02-22T18:52:50.832Z,9.90
2019-02-22T18:55:20.149Z,9.90
2019-02-22T18:57:49.462Z,9.80
2019-02-22T19:00:20.536Z,10.00
2019-02-22T19:02:49.897Z,10.10
2019-02-22T19:05:19.343Z,9.90
2019-02-22T19:07:49.748Z,9.60
2019-02-22T19:10:20.499Z,9.60
2019-02-22T19:12:49.891Z,9.70
2019-02-22T19:15:19.232Z,9.40
2019-02-22T19:17:48.624Z,9.30
2019-02-22T19:20:19.501Z,9.20
2019-02-22T19:22:48.943Z,9.30
2019-02-22T19:25:18.328Z,9.40
2019-02-22T19:27:47.662Z,9.30
2019-02-22T19:30:18.791Z,9.30
2019-02-22T19:32:48.155Z,9.30
2019-02-22T19:35:17.493Z,9.10
2019-02-22T19:37:47.200Z,9.00
2019-02-22T19:40:19.524Z,8.90
2019-02-22T19:42:49.273Z,8.90
2019-02-22T19:45:21.355Z,8.90
2019-02-22T19:47:50.717Z,8.90
2019-02-22T19:50:20.049Z,9.00
2019-02-22T19:52:49.365Z,9.10
2019-02-22T19:55:21.141Z,9.10
2019-02-22T19:57:50.516Z,9.10
2019-02-22T20:00:20.234Z,9.00
2019-02-22T20:02:50.622Z,9.00
2019-02-22T20:05:19.934Z,8.90
2019-02-22T20:07:51.742Z,8.90
2019-02-22T20:10:22.520Z,8.90
2019-02-22T20:12:52.045Z,8.80
2019-02-22T20:15:21.425Z,8.70
2019-02-22T20:17:54.438Z,8.70
2019-02-22T20:20:21.780Z,8.70
2019-02-22T20:22:51.160Z,8.50
2019-02-22T20:25:20.584Z,8.40
2019-02-22T20:27:49.971Z,8.50
2019-02-22T20:30:19.999Z,8.60
2019-02-22T20:32:49.375Z,8.50
2019-02-22T20:35:23.997Z,8.60
2019-02-22T20:37:53.688Z,8.50
2019-02-22T20:40:24.184Z,8.40
2019-02-22T20:42:53.576Z,8.50
2019-02-22T20:45:23.097Z,8.50
2019-02-22T20:48:04.240Z,8.40
2019-02-22T20:50:24.521Z,8.30
2019-02-22T20:52:53.969Z,8.20
2019-02-22T20:55:23.304Z,8.10
2019-02-22T20:57:52.676Z,8.10
2019-02-22T21:00:27.131Z,8.10
2019-02-22T21:02:56.482Z,8.00
2019-02-22T21:05:25.793Z,8.00
2019-02-22T21:07:55.128Z,7.90
2019-02-22T21:10:24.484Z,7.90
2019-02-22T21:12:53.869Z,7.90
2019-02-22T21:15:23.192Z,7.90
2019-02-22T21:17:52.549Z,7.80
2019-02-22T21:20:22.631Z,7.90
2019-02-22T21:22:53.102Z,7.80
2019-02-22T21:25:22.420Z,7.80
2019-02-22T21:27:51.885Z,7.70
2019-02-22T21:30:21.429Z,7.70
2019-02-22T21:32:50.741Z,7.60
2019-02-22T21:35:20.060Z,7.60
2019-02-22T21:37:49.412Z,7.50
2019-02-22T21:40:18.795Z,7.50
2019-02-22T21:42:48.164Z,7.60
2019-02-22T21:45:18.628Z,7.60
2019-02-22T21:47:54.730Z,7.60
2019-02-22T21:50:19.017Z,7.60
2019-02-22T21:52:48.348Z,7.60
2019-02-22T21:55:17.728Z,7.60
2019-02-22T21:57:47.118Z,7.60
2019-02-22T22:00:27.726Z,7.50
2019-02-22T22:02:57.176Z,7.50
2019-02-22T22:05:26.508Z,7.50
2019-02-22T22:07:55.870Z,7.50
2019-02-22T22:10:25.245Z,7.50
2019-02-22T22:12:54.642Z,7.50
2019-02-22T22:15:24.001Z,7.40
2019-02-22T22:17:53.378Z,7.40
2019-02-22T22:20:22.705Z,7.40
2019-02-22T22:22:52.061Z,7.50
2019-02-22T22:25:21.451Z,7.40
2019-02-22T22:27:51.239Z,7.40
2019-02-22T22:30:20.705Z,7.40
2019-02-22T22:32:52.510Z,7.40
2019-02-22T22:35:21.069Z,7.40
2019-02-22T22:37:50.395Z,7.40
2019-02-22T22:40:19.779Z,7.30
2019-02-22T22:42:49.125Z,7.20
2019-02-22T22:45:18.490Z,7.20
2019-02-22T22:47:47.862Z,7.20
2019-02-22T22:50:17.767Z,7.10
2019-02-22T22:52:47.081Z,7.10
2019-02-22T22:55:16.392Z,7.10
2019-02-22T22:57:45.749Z,7.10
2019-02-22T23:00:51.408Z,7.00
2019-02-22T23:03:22.403Z,6.90
2019-02-22T23:05:51.854Z,7.00
2019-02-22T23:08:21.238Z,7.10
2019-02-22T23:10:50.812Z,7.00
2019-02-22T23:13:21.752Z,7.00
2019-02-22T23:15:51.150Z,6.90
2019-02-22T23:18:20.711Z,6.90
2019-02-22T23:20:50.028Z,6.90
2019-02-22T23:23:19.406Z,7.00
2019-02-22T23:25:48.898Z,6.90
2019-02-22T23:28:18.276Z,6.80
2019-02-22T23:30:47.657Z,6.70
2019-02-22T23:33:17.013Z,6.80
2019-02-22T23:35:46.393Z,6.80
2019-02-22T23:38:15.710Z,6.80
2019-02-22T23:40:45.070Z,6.80
2019-02-22T23:43:14.389Z,6.60
2019-02-22T23:45:43.710Z,6.60
2019-02-22T23:48:13.059Z,6.70
2019-02-22T23:50:42.370Z,6.70
2019-02-22T23:53:11.682Z,6.60
2019-02-22T23:55:41.102Z,6.60
2019-02-22T23:58:10.419Z,6.60
